Time;durP1;ratioP1;P1;durP2;ratioP2;P2;SDS_P1;SDS_P2;PMS_P1;PMS_P2;Temp;Humidity;BMP_temperature;BMP_pressure;BME280_temperature;BME280_humidity;BME280_pressure;Samples;Min_cycle;Max_cycle;Signal;HPM_P1;HPM_P2
2023/01/31 00:00:31;;;;;;;9.80;5.85;;;;;;;9.62;100.00;100899.78;2079502;28;20062;-78
2023/01/31 00:01:53;;;;;;;11.25;7.85;;;;;;;9.62;100.00;100896.28;2085787;28;20057;-78
2023/01/31 00:03:15;;;;;;;10.30;5.97;;;;;;;9.64;100.00;100892.81;2080146;28;20402;-79
2023/01/31 00:04:37;;;;;;;7.78;5.15;;;;;;;9.63;100.00;100896.31;2087180;28;20041;-78
2023/01/31 00:06:07;;;;;;;8.88;5.30;;;;;;;9.60;100.00;100889.22;2082878;28;20077;-80
2023/01/31 00:07:30;;;;;;;8.88;5.28;;;;;;;9.59;100.00;100890.06;2078450;28;20053;-78
2023/01/31 00:08:55;;;;;;;9.48;5.45;;;;;;;9.59;100.00;100891.81;2078042;28;20049;-78
2023/01/31 00:10:16;;;;;;;8.02;5.03;;;;;;;9.57;100.00;100894.44;2085809;28;20051;-78
2023/01/31 00:11:39;;;;;;;8.15;4.82;;;;;;;9.55;100.00;100887.34;2086508;28;20041;-78
2023/01/31 00:13:00;;;;;;;8.90;4.50;;;;;;;9.55;100.00;100897.88;2085466;28;20053;-80
2023/01/31 00:14:23;;;;;;;7.18;4.80;;;;;;;9.55;100.00;100889.97;2085110;28;20055;-77
2023/01/31 00:15:45;;;;;;;8.15;4.90;;;;;;;9.58;100.00;100892.69;2077275;28;20092;-79
2023/01/31 00:17:07;;;;;;;6.55;4.47;;;;;;;9.59;100.00;100890.06;2082852;28;20076;-79
2023/01/31 00:18:29;;;;;;;8.55;4.60;;;;;;;9.61;100.00;100892.75;2094157;28;20051;-80
2023/01/31 00:19:51;;;;;;;7.50;4.88;;;;;;;9.62;100.00;100886.63;2088279;28;20037;-80
2023/01/31 00:21:15;;;;;;;7.28;4.72;;;;;;;9.65;100.00;100891.06;2085394;28;20073;-79
2023/01/31 00:22:37;;;;;;;7.97;4.88;;;;;;;9.65;100.00;100885.81;2085949;28;20471;-78
2023/01/31 00:24:01;;;;;;;8.73;5.03;;;;;;;9.65;100.00;100891.94;2092791;28;20046;-80
2023/01/31 00:25:22;;;;;;;8.57;4.60;;;;;;;9.65;100.00;100885.81;2084141;28;20060;-78
2023/01/31 00:26:45;;;;;;;7.78;5.03;;;;;;;9.64;100.00;100881.38;2076303;28;20030;-80
2023/01/31 00:28:07;;;;;;;6.88;4.28;;;;;;;9.65;100.00;100878.75;2082884;28;20049;-81
2023/01/31 00:29:28;;;;;;;7.28;4.20;;;;;;;9.66;100.00;100884.91;2085494;28;20586;-81
2023/01/31 00:30:51;;;;;;;8.55;5.22;;;;;;;9.64;100.00;100884.91;2085196;28;20044;-81
2023/01/31 00:32:12;;;;;;;8.52;5.00;;;;;;;9.65;100.00;100878.75;2084990;28;20087;-81
2023/01/31 00:33:35;;;;;;;9.85;5.40;;;;;;;9.64;100.00;100882.28;2075838;28;20521;-80
2023/01/31 00:34:57;;;;;;;8.05;4.93;;;;;;;9.64;100.00;100881.38;2074841;28;20057;-79
2023/01/31 00:36:20;;;;;;;8.40;4.80;;;;;;;9.64;100.00;100877.00;2075114;28;20050;-80
2023/01/31 00:37:42;;;;;;;7.72;5.13;;;;;;;9.66;100.00;100882.28;2083322;28;20131;-80
2023/01/31 00:39:07;;;;;;;8.38;4.95;;;;;;;9.66;100.00;100880.53;2077486;28;20050;-79
2023/01/31 00:40:28;;;;;;;8.65;5.38;;;;;;;9.65;100.00;100889.31;2091160;28;20041;-80
2023/01/31 00:41:51;;;;;;;8.00;5.40;;;;;;;9.67;100.00;100889.34;2082651;28;20600;-79
2023/01/31 00:43:13;;;;;;;9.48;5.20;;;;;;;9.69;100.00;100885.91;2092756;28;20569;-79
2023/01/31 00:44:35;;;;;;;8.38;5.38;;;;;;;9.68;100.00;100875.31;2081427;28;20545;-80
2023/01/31 00:45:58;;;;;;;8.20;5.10;;;;;;;9.69;100.00;100882.38;2084670;28;20049;-81
2023/01/31 00:47:21;;;;;;;10.38;5.25;;;;;;;9.68;100.00;100878.84;2084909;28;20057;-80
2023/01/31 00:48:42;;;;;;;11.98;5.38;;;;;;;9.70;100.00;100878.88;2077073;28;20385;-79
2023/01/31 00:50:06;;;;;;;10.68;5.20;;;;;;;9.73;100.00;100881.56;2085386;28;20063;-81
2023/01/31 00:51:27;;;;;;;12.45;6.25;;;;;;;9.74;100.00;100884.25;2074013;28;20038;-79
2023/01/31 00:52:49;;;;;;;9.57;6.07;;;;;;;9.76;100.00;100879.91;2078684;28;20514;-80
2023/01/31 00:54:12;;;;;;;7.88;5.15;;;;;;;9.80;100.00;100875.56;2077426;28;20045;-78
2023/01/31 00:55:35;;;;;;;7.82;5.20;;;;;;;9.80;100.00;100868.53;2086440;28;20063;-79
2023/01/31 00:56:57;;;;;;;9.95;5.90;;;;;;;9.81;100.00;100865.06;2085634;28;20048;-80
2023/01/31 00:58:18;;;;;;;8.65;5.47;;;;;;;9.80;100.00;100855.34;2087237;28;20520;-79
2023/01/31 00:59:40;;;;;;;8.70;4.88;;;;;;;9.77;100.00;100847.41;2078974;28;20037;-80
2023/01/31 01:01:06;;;;;;;7.53;4.60;;;;;;;9.75;100.00;100856.13;2082218;28;20103;-79
2023/01/31 01:02:28;;;;;;;9.18;5.22;;;;;;;9.70;100.00;100844.63;2078589;28;20073;-79
2023/01/31 01:03:51;;;;;;;7.72;4.90;;;;;;;9.68;100.00;100846.31;2077887;28;20075;-79
2023/01/31 01:05:12;;;;;;;7.05;3.95;;;;;;;9.64;100.00;100847.13;2080850;28;20111;-79
2023/01/31 01:06:35;;;;;;;7.78;4.70;;;;;;;9.60;100.00;100851.44;2090092;28;20036;-79
2023/01/31 01:07:57;;;;;;;7.65;4.60;;;;;;;9.56;100.00;100847.84;2084143;28;20046;-79
2023/01/31 01:09:21;;;;;;;8.85;4.25;;;;;;;9.55;100.00;100850.44;2086672;28;20053;-79
2023/01/31 01:10:42;;;;;;;7.22;4.25;;;;;;;9.54;100.00;100856.56;2079328;28;20037;-79
2023/01/31 01:12:06;;;;;;;7.50;4.95;;;;;;;9.54;100.00;100848.66;2084035;28;20489;-79
2023/01/31 01:13:27;;;;;;;10.20;5.50;;;;;;;9.54;100.00;100846.91;2086991;28;20052;-79
2023/01/31 01:14:49;;;;;;;9.68;5.13;;;;;;;9.53;100.00;100847.78;2094935;28;20143;-78
2023/01/31 01:16:12;;;;;;;9.25;4.72;;;;;;;9.56;100.00;100849.59;2089502;28;20091;-79
2023/01/31 01:17:35;;;;;;;7.47;4.82;;;;;;;9.56;100.00;100850.50;2085897;28;20057;-79
2023/01/31 01:18:58;;;;;;;8.00;4.70;;;;;;;9.56;100.00;100839.94;2078646;28;20121;-79
2023/01/31 01:20:20;;;;;;;8.23;5.20;;;;;;;9.57;100.00;100840.84;2086683;28;20049;-79
2023/01/31 01:21:43;;;;;;;8.63;5.03;;;;;;;9.57;100.00;100836.47;2072896;28;20145;-79
2023/01/31 01:23:04;;;;;;;6.82;4.45;;;;;;;9.56;100.00;100844.31;2084141;28;20509;-79
2023/01/31 01:24:28;;;;;;;8.27;4.68;;;;;;;9.56;100.00;100837.31;2086333;28;20079;-79
2023/01/31 01:25:49;;;;;;;7.15;4.75;;;;;;;9.55;100.00;100826.72;2078730;28;20084;-79
2023/01/31 01:27:13;;;;;;;7.65;4.70;;;;;;;9.56;100.00;100833.78;2084248;28;20052;-79
2023/01/31 01:28:34;;;;;;;9.18;5.60;;;;;;;9.55;100.00;100827.63;2078550;28;20049;-79
2023/01/31 01:29:57;;;;;;;8.63;5.03;;;;;;;9.55;100.00;100829.38;2086925;28;20158;-79
2023/01/31 01:31:20;;;;;;;8.57;5.28;;;;;;;9.56;100.00;100828.53;2078397;28;20060;-78
2023/01/31 01:32:42;;;;;;;9.82;5.22;;;;;;;9.53;100.00;100831.97;2072570;28;20046;-78
2023/01/31 01:34:07;;;;;;;8.00;5.03;;;;;;;9.52;100.00;100819.63;2067785;28;20046;-79
2023/01/31 01:35:29;;;;;;;9.05;5.10;;;;;;;9.51;100.00;100831.06;2080067;28;20452;-79
2023/01/31 01:36:51;;;;;;;7.95;5.32;;;;;;;9.49;100.00;100823.97;2070147;28;20049;-79
2023/01/31 01:38:13;;;;;;;7.60;4.88;;;;;;;9.45;100.00;100820.38;2079009;28;20091;-79
2023/01/31 01:39:36;;;;;;;8.02;5.00;;;;;;;9.40;100.00;100823.78;2085912;28;20151;-79
2023/01/31 01:40:58;;;;;;;7.93;5.00;;;;;;;9.35;100.00;100823.69;2071580;28;20100;-78
2023/01/31 01:42:22;;;;;;;9.23;4.85;;;;;;;9.32;100.00;100825.38;2085229;28;20123;-78
2023/01/31 01:43:47;;;;;;;7.40;4.55;;;;;;;9.28;100.00;100827.03;2078144;28;20045;-78
2023/01/31 01:45:15;;;;;;;7.60;4.78;;;;;;;9.25;100.00;100826.09;2084113;28;20471;-79
2023/01/31 01:46:40;;;;;;;8.80;4.68;;;;;;;9.21;100.00;100833.03;2104205;28;20048;-78
2023/01/31 01:48:07;;;;;;;8.55;4.80;;;;;;;9.19;100.00;100832.09;2091632;28;20060;-79
2023/01/31 01:49:33;;;;;;;7.53;4.55;;;;;;;9.16;100.00;100832.03;2087083;28;20052;-79
2023/01/31 01:50:57;;;;;;;8.48;4.90;;;;;;;9.14;100.00;100826.72;2095377;28;20052;-78
2023/01/31 01:52:21;;;;;;;9.65;5.20;;;;;;;9.13;100.00;100824.06;2087981;28;20060;-78
2023/01/31 01:53:44;;;;;;;8.27;4.80;;;;;;;9.11;100.00;100820.53;2078464;28;20041;-78
2023/01/31 01:55:15;;;;;;;7.60;5.00;;;;;;;9.08;100.00;100809.91;2083795;28;20041;-78
2023/01/31 01:56:41;;;;;;;8.63;5.35;;;;;;;9.06;100.00;100808.97;2079466;28;20053;-78
2023/01/31 01:58:08;;;;;;;7.50;4.55;;;;;;;9.02;100.00;100808.03;2081498;28;20041;-78
2023/01/31 01:59:34;;;;;;;7.05;4.47;;;;;;;8.99;100.00;100809.72;2086669;28;20053;-79
2023/01/31 02:00:56;;;;;;;8.18;4.80;;;;;;;8.96;100.00;100814.91;2095038;28;20052;-78
2023/01/31 02:02:18;;;;;;;12.18;6.03;;;;;;;8.94;100.00;100819.22;2089358;28;20052;-79
2023/01/31 02:03:41;;;;;;;;;;;;;;;8.86;100.00;100808.53;2086732;28;20048;-78
2023/01/31 02:05:03;;;;;;;9.15;5.85;;;;;;;8.84;100.00;100805.00;2086524;28;19920;-78
2023/01/31 02:06:26;;;;;;;10.02;6.60;;;;;;;8.84;100.00;100812.00;2094511;28;20049;-78
2023/01/31 02:07:47;;;;;;;10.48;6.97;;;;;;;8.83;100.00;100803.22;2080790;28;20049;-79
2023/01/31 02:09:14;;;;;;;10.70;6.47;;;;;;;8.82;100.00;100806.69;2086448;28;20034;-79
2023/01/31 02:10:44;;;;;;;10.70;6.40;;;;;;;8.77;100.00;100809.22;2087139;28;20259;-78
2023/01/31 02:12:06;;;;;;;11.90;7.63;;;;;;;8.73;100.00;100801.19;2087162;28;20033;-78
2023/01/31 02:13:30;;;;;;;10.60;6.88;;;;;;;8.71;100.00;100808.19;2085945;28;20053;-78
2023/01/31 02:14:52;;;;;;;15.10;11.07;;;;;;;8.70;100.00;100812.56;2078176;28;20038;-78
2023/01/31 02:16:15;;;;;;;15.75;11.52;;;;;;;8.67;100.00;100815.09;2072388;28;20042;-78
2023/01/31 02:17:37;;;;;;;17.73;14.20;;;;;;;8.65;100.00;100803.66;2072616;28;20058;-78
2023/01/31 02:19:00;;;;;;;14.43;10.63;;;;;;;8.64;100.00;100811.53;2067069;28;20041;-79
2023/01/31 02:20:42;;;;;;;11.73;8.13;;;;;;;8.60;100.00;100804.41;2067155;28;20256;-78
2023/01/31 02:22:10;;;;;;;;;;;;;;;8.50;100.00;100803.28;2073005;28;20518;-78
2023/01/31 02:23:57;;;;;;;7.93;5.30;;;;;;;8.46;100.00;100809.34;2070691;28;19984;-78
2023/01/31 02:25:47;;;;;;;7.07;4.50;;;;;;;8.44;100.00;100810.16;2072375;28;20057;-78
2023/01/31 02:27:47;;;;;;;8.00;4.57;;;;;;;8.39;100.00;100807.41;2071778;28;20403;-78
2023/01/31 02:29:28;;;;;;;8.30;4.78;;;;;;;8.38;100.00;100803.88;2078457;28;20454;-78
2023/01/31 02:31:40;;;;;;;8.68;5.07;;;;;;;8.36;100.00;100808.22;2080517;28;20136;-78
2023/01/31 02:33:15;;;;;;;8.50;5.10;;;;;;;8.34;100.00;100803.75;2080653;28;20058;-78
2023/01/31 02:34:44;;;;;;;10.60;7.03;;;;;;;8.35;100.00;100809.06;2080815;28;20057;-78
2023/01/31 02:36:18;;;;;;;7.30;4.55;;;;;;;8.39;100.00;100802.16;2080778;28;20049;-78
2023/01/31 02:37:51;;;;;;;7.65;4.72;;;;;;;8.40;100.00;100807.41;2072420;28;20037;-78
2023/01/31 02:39:23;;;;;;;138.65;67.82;;;;;;;8.44;100.00;100802.25;2069940;28;20733;-77
2023/01/31 02:40:51;;;;;;;11.40;7.15;;;;;;;8.47;100.00;100815.50;2077496;28;20044;-78
2023/01/31 02:42:23;;;;;;;8.50;5.57;;;;;;;8.50;100.00;100808.56;2077255;28;20057;-78
2023/01/31 02:45:42;;;;;;;10.02;6.38;;;;;;;8.58;100.00;100812.28;2096020;28;20238;-77
2023/01/31 02:47:12;;;;;;;15.20;9.25;;;;;;;8.62;100.00;100814.09;2072507;28;20049;-78
2023/01/31 02:48:46;;;;;;;8.35;5.28;;;;;;;8.64;100.00;100804.53;2078832;28;20772;-78
2023/01/31 02:50:14;;;;;;;7.82;4.40;;;;;;;8.62;100.00;100806.22;2074789;28;20559;-78
2023/01/31 02:52:15;;;;;;;6.72;4.70;;;;;;;8.60;100.00;100813.19;2078751;28;20052;-78
2023/01/31 02:53:33;;;;;;;8.23;4.60;;;;;;;8.54;100.00;100802.50;2079978;28;20539;-77
2023/01/31 02:56:47;;;;;;;5.63;3.60;;;;;;;8.59;100.00;100805.28;2072524;28;20042;-79
2023/01/31 02:58:13;;;;;;;7.45;4.22;;;;;;;8.62;100.00;100811.47;2092429;28;20144;-78
2023/01/31 02:59:38;;;;;;;7.63;4.45;;;;;;;8.64;100.00;100807.16;2082495;28;20141;-78
2023/01/31 03:01:04;;;;;;;6.75;4.20;;;;;;;8.71;100.00;100805.56;2076863;28;20516;-78
2023/01/31 03:02:25;;;;;;;9.50;5.78;;;;;;;8.74;100.00;100808.25;2083311;28;20086;-78
2023/01/31 03:03:49;;;;;;;7.55;4.53;;;;;;;8.78;100.00;100808.38;2088716;28;20148;-78
2023/01/31 03:05:14;;;;;;;6.95;4.22;;;;;;;8.85;100.00;100803.25;2085496;28;20045;-78
2023/01/31 03:06:53;;;;;;;9.13;4.20;;;;;;;8.90;100.00;100807.75;2072206;28;20050;-78
2023/01/31 03:08:21;;;;;;;15.07;8.82;;;;;;;8.90;100.00;100802.50;2079105;28;20608;-78
2023/01/31 03:09:56;;;;;;;8.18;5.32;;;;;;;8.94;100.00;100806.97;2078322;28;20049;-78
2023/01/31 03:11:21;;;;;;;7.35;5.18;;;;;;;8.97;100.00;100806.16;2078767;28;20065;-78
2023/01/31 03:12:53;;;;;;;8.10;5.55;;;;;;;9.00;100.00;100812.38;2069176;28;20117;-78
2023/01/31 03:14:26;;;;;;;8.07;4.68;;;;;;;9.02;100.00;100815.03;2079237;28;20098;-78
2023/01/31 03:17:57;;;;;;;6.90;4.28;;;;;;;8.97;100.00;100806.16;2080124;28;20045;-78
2023/01/31 03:19:30;;;;;;;6.55;3.95;;;;;;;8.96;100.00;100809.63;2079709;28;20056;-78
2023/01/31 03:21:00;;;;;;;7.32;4.22;;;;;;;8.93;100.00;100807.81;2070598;28;20107;-77
2023/01/31 03:22:27;;;;;;;7.40;4.13;;;;;;;8.92;100.00;100819.22;2070609;28;20053;-78
2023/01/31 03:23:53;;;;;;;9.77;6.55;;;;;;;8.91;100.00;100814.81;2067814;28;20591;-77
2023/01/31 03:25:20;;;;;;;22.75;19.65;;;;;;;8.84;100.00;100814.63;2077977;28;20096;-77
2023/01/31 03:26:46;;;;;;;9.82;5.88;;;;;;;8.80;100.00;100809.28;2078705;28;20043;-78
2023/01/31 03:28:11;;;;;;;9.23;5.47;;;;;;;8.85;100.00;100821.66;2077868;28;20080;-77
2023/01/31 03:29:37;;;;;;;8.13;5.32;;;;;;;8.88;100.00;100809.47;2077726;28;20034;-78
2023/01/31 03:31:07;;;;;;;10.40;7.00;;;;;;;8.93;100.00;100809.56;2077836;28;20056;-78
2023/01/31 03:32:35;;;;;;;7.72;4.95;;;;;;;8.95;100.00;100802.59;2085375;28;20052;-77
2023/01/31 03:34:02;;;;;;;6.78;4.60;;;;;;;8.95;100.00;100789.44;2094672;28;20052;-78
2023/01/31 03:35:29;;;;;;;6.88;4.65;;;;;;;8.93;100.00;100791.13;2088785;28;20091;-77
2023/01/31 03:36:57;;;;;;;7.53;4.10;;;;;;;8.89;100.00;100794.56;2095068;28;20102;-77
2023/01/31 03:38:44;;;;;;;5.80;4.10;;;;;;;8.85;100.00;100803.25;2087857;28;20396;-77
2023/01/31 03:40:13;;;;;;;7.88;4.70;;;;;;;8.84;100.00;100794.47;2085351;28;20111;-77
2023/01/31 03:41:46;;;;;;;8.68;4.50;;;;;;;8.86;100.00;100800.63;2078515;28;20132;-77
2023/01/31 03:43:16;;;;;;;7.85;4.35;;;;;;;8.89;100.00;100798.09;2085956;28;20049;-77
2023/01/31 03:44:50;;;;;;;7.50;4.25;;;;;;;8.89;100.00;100789.28;2075572;28;20394;-78
2023/01/31 03:46:17;;;;;;;7.50;4.45;;;;;;;8.88;100.00;100787.50;2077261;28;20758;-77
2023/01/31 03:47:43;;;;;;;6.18;3.97;;;;;;;8.88;100.00;100790.13;2084882;28;20044;-77
2023/01/31 03:49:10;;;;;;;6.60;3.60;;;;;;;8.89;100.00;100782.28;2077898;28;20056;-75
2023/01/31 03:50:37;;;;;;;6.68;3.58;;;;;;;8.92;100.00;100794.63;2083139;28;20481;-78
2023/01/31 03:52:06;;;;;;;6.90;4.00;;;;;;;8.93;100.00;100792.03;2085604;28;20052;-78
2023/01/31 03:53:33;;;;;;;6.82;4.28;;;;;;;8.95;100.00;100802.59;2079767;28;20072;-78
2023/01/31 03:55:01;;;;;;;7.07;3.85;;;;;;;8.96;100.00;100801.75;2084082;28;20055;-78
2023/01/31 03:56:28;;;;;;;7.47;3.83;;;;;;;8.98;100.00;100803.56;2074250;28;20040;-77
2023/01/31 03:57:54;;;;;;;6.53;4.10;;;;;;;8.99;100.00;100805.31;2069901;28;20057;-78
2023/01/31 03:59:21;;;;;;;7.90;4.88;;;;;;;8.99;100.00;100802.69;2083751;28;20049;-78
2023/01/31 04:00:45;;;;;;;7.65;4.60;;;;;;;8.99;100.00;100802.69;2085409;28;20057;-77
2023/01/31 04:02:11;;;;;;;6.68;3.65;;;;;;;8.98;100.00;100805.31;2088256;28;20045;-78
2023/01/31 04:03:38;;;;;;;8.15;3.90;;;;;;;8.99;100.00;100815.00;2080015;28;20084;-78
2023/01/31 04:05:06;;;;;;;7.57;4.13;;;;;;;8.94;100.00;100806.97;2074073;28;20690;-78
2023/01/31 04:06:32;;;;;;;9.32;5.00;;;;;;;8.91;100.00;100808.66;2085354;28;20115;-78
2023/01/31 04:07:54;;;;;;;24.02;14.27;;;;;;;8.87;100.00;100804.16;2084420;28;20064;-78
2023/01/31 04:09:19;;;;;;;30.08;21.45;;;;;;;8.84;100.00;100801.47;2085704;28;20049;-77
2023/01/31 04:10:42;;;;;;;19.50;11.98;;;;;;;8.81;100.00;100807.53;2087954;28;20037;-77
2023/01/31 04:12:04;;;;;;;10.88;6.55;;;;;;;8.77;100.00;100805.69;2079951;28;20057;-77
2023/01/31 04:13:26;;;;;;;8.30;4.90;;;;;;;8.71;100.00;100801.19;2085624;28;20053;-77
2023/01/31 04:14:48;;;;;;;7.22;4.18;;;;;;;8.64;100.00;100804.53;2086066;28;20052;-77
2023/01/31 04:16:11;;;;;;;7.30;3.80;;;;;;;8.59;100.00;100803.53;2084435;28;20052;-78
2023/01/31 04:17:33;;;;;;;9.38;5.95;;;;;;;8.52;100.00;100806.88;2084535;28;20068;-77
2023/01/31 04:18:56;;;;;;;15.25;9.68;;;;;;;8.49;100.00;100808.50;2078963;28;20053;-77
2023/01/31 04:20:18;;;;;;;10.30;6.82;;;;;;;8.46;100.00;100793.56;2091612;28;20610;-77
2023/01/31 04:21:42;;;;;;;10.20;6.15;;;;;;;8.45;100.00;100794.41;2087098;28;20041;-77
2023/01/31 04:23:04;;;;;;;8.65;4.25;;;;;;;8.43;100.00;100795.22;2082651;28;20088;-77
2023/01/31 04:24:25;;;;;;;9.10;4.78;;;;;;;8.39;100.00;100792.53;2079213;28;20064;-77
2023/01/31 04:25:48;;;;;;;6.40;3.53;;;;;;;8.38;100.00;100788.09;2079812;28;20053;-77
2023/01/31 04:27:09;;;;;;;5.32;3.33;;;;;;;8.36;100.00;100795.06;2094325;28;20044;-77
2023/01/31 04:28:31;;;;;;;7.47;3.47;;;;;;;8.34;100.00;100791.50;2081262;28;20081;-76
2023/01/31 04:29:54;;;;;;;6.22;3.33;;;;;;;8.34;100.00;100798.50;2078719;28;20506;-77
2023/01/31 04:31:15;;;;;;;4.63;3.00;;;;;;;8.32;100.00;100794.97;2078885;28;20045;-77
2023/01/31 04:32:37;;;;;;;7.20;3.42;;;;;;;8.32;100.00;100797.59;2081644;28;20366;-77
2023/01/31 04:34:00;;;;;;;5.38;3.45;;;;;;;8.31;100.00;100785.28;2080906;28;20107;-78
2023/01/31 04:35:22;;;;;;;6.82;3.88;;;;;;;8.33;100.00;100791.47;2084866;28;20036;-77
2023/01/31 04:36:45;;;;;;;4.82;3.28;;;;;;;8.34;100.00;100790.59;2085920;28;20053;-77
2023/01/31 04:38:07;;;;;;;6.40;3.75;;;;;;;8.34;100.00;100786.22;2079423;28;20125;-77
2023/01/31 04:39:29;;;;;;;7.07;3.70;;;;;;;8.35;100.00;100792.38;2087083;28;20053;-77
2023/01/31 04:40:51;;;;;;;5.75;3.55;;;;;;;8.35;100.00;100788.03;2085210;28;20037;-76
2023/01/31 04:42:13;;;;;;;6.47;3.28;;;;;;;8.37;100.00;100790.69;2086309;28;20052;-77
2023/01/31 04:43:35;;;;;;;7.75;3.78;;;;;;;8.38;100.00;100790.75;2082802;28;20055;-76
2023/01/31 04:44:57;;;;;;;6.00;4.10;;;;;;;8.42;100.00;100785.53;2086399;28;20493;-76
2023/01/31 04:46:18;;;;;;;8.18;4.00;;;;;;;8.45;100.00;100794.41;2083909;28;20053;-77
2023/01/31 04:47:41;;;;;;;5.00;3.22;;;;;;;8.47;100.00;100792.69;2086849;28;20049;-76
2023/01/31 04:49:03;;;;;;;5.90;3.42;;;;;;;8.50;100.00;100797.13;2087079;28;20045;-77
2023/01/31 04:50:25;;;;;;;5.85;3.40;;;;;;;8.51;100.00;100791.94;2084735;28;20500;-77
2023/01/31 04:51:48;;;;;;;5.15;3.33;;;;;;;8.54;100.00;100799.88;2081803;28;20099;-77
2023/01/31 04:53:11;;;;;;;6.15;3.80;;;;;;;8.59;100.00;100805.28;2086983;28;20037;-76
2023/01/31 04:54:33;;;;;;;7.60;3.42;;;;;;;8.61;100.00;100809.69;2087787;28;20048;-77
2023/01/31 04:55:56;;;;;;;5.90;3.88;;;;;;;8.66;100.00;100809.81;2081273;28;20061;-77
2023/01/31 04:57:18;;;;;;;7.28;3.75;;;;;;;8.68;100.00;100814.25;2089516;28;20048;-77
2023/01/31 04:58:42;;;;;;;6.75;3.70;;;;;;;8.72;100.00;100818.75;2084060;28;20045;-77
2023/01/31 05:00:05;;;;;;;7.82;3.72;;;;;;;8.74;100.00;100814.41;2078159;28;20064;-77
2023/01/31 05:01:28;;;;;;;8.05;3.75;;;;;;;8.77;100.00;100822.38;2083992;28;20048;-77
2023/01/31 05:02:49;;;;;;;7.05;3.78;;;;;;;8.78;100.00;100818.00;2089719;28;20116;-77
2023/01/31 05:04:14;;;;;;;7.55;3.80;;;;;;;8.79;100.00;100819.78;2086383;28;20052;-77
2023/01/31 05:05:36;;;;;;;5.47;3.47;;;;;;;8.78;100.00;100818.00;2076577;28;20038;-77
2023/01/31 05:07:00;;;;;;;6.97;3.40;;;;;;;8.81;100.00;100820.69;2083679;28;20056;-76
2023/01/31 05:08:22;;;;;;;5.68;3.30;;;;;;;8.82;100.00;100818.97;2086779;28;20048;-77
2023/01/31 05:09:45;;;;;;;6.35;2.85;;;;;;;8.85;100.00;100829.56;2080832;28;20045;-78
2023/01/31 05:11:08;;;;;;;7.00;3.40;;;;;;;8.87;100.00;100830.47;2088811;28;20051;-76
2023/01/31 05:12:30;;;;;;;9.18;6.05;;;;;;;8.88;100.00;100833.16;2088719;28;20544;-77
2023/01/31 05:13:53;;;;;;;11.50;9.40;;;;;;;8.92;100.00;100828.84;2080366;28;20678;-77
2023/01/31 05:15:14;;;;;;;23.52;21.02;;;;;;;8.95;100.00;100834.19;2086625;28;20064;-77
2023/01/31 05:16:36;;;;;;;46.25;41.40;;;;;;;8.97;100.00;100837.75;2080795;28;20092;-78
2023/01/31 05:18:01;;;;;;;36.33;32.40;;;;;;;8.98;100.00;100839.53;2077947;28;20049;-77
2023/01/31 05:19:24;;;;;;;20.05;18.02;;;;;;;9.01;100.00;100834.31;2086805;28;20049;-77
2023/01/31 05:20:48;;;;;;;17.50;13.98;;;;;;;9.01;100.00;100835.22;2080554;28;20062;-78
2023/01/31 05:22:12;;;;;;;16.52;13.82;;;;;;;9.03;100.00;100835.25;2078838;28;20042;-77
2023/01/31 05:23:33;;;;;;;8.90;6.97;;;;;;;9.02;100.00;100830.84;2086042;28;20491;-77
2023/01/31 05:24:56;;;;;;;10.80;7.90;;;;;;;9.00;100.00;100830.78;2080674;28;20052;-77
2023/01/31 05:26:18;;;;;;;9.95;7.63;;;;;;;8.99;100.00;100831.66;2077869;28;20045;-77
2023/01/31 05:27:40;;;;;;;16.05;13.63;;;;;;;8.98;100.00;100834.25;2091946;28;20044;-78
2023/01/31 05:29:06;;;;;;;20.02;17.60;;;;;;;8.99;100.00;100849.22;2088748;28;20562;-77
2023/01/31 05:30:28;;;;;;;10.70;7.95;;;;;;;8.99;100.00;100834.28;2078120;28;20453;-77
2023/01/31 05:31:50;;;;;;;8.35;5.53;;;;;;;9.01;100.00;100836.94;2083126;28;20587;-77
2023/01/31 05:33:13;;;;;;;8.13;5.20;;;;;;;9.02;100.00;100839.63;2080697;28;20045;-77
2023/01/31 05:34:36;;;;;;;7.88;5.55;;;;;;;9.00;100.00;100843.97;2077972;28;20133;-77
2023/01/31 05:35:57;;;;;;;7.65;5.22;;;;;;;8.99;100.00;100838.69;2085801;28;20406;-77
2023/01/31 05:37:21;;;;;;;7.68;4.20;;;;;;;8.98;100.00;100836.91;2082930;28;20586;-77
2023/01/31 05:38:43;;;;;;;6.22;3.90;;;;;;;8.98;100.00;100839.53;2083087;28;20892;-78
2023/01/31 05:40:05;;;;;;;4.90;3.45;;;;;;;8.97;100.00;100838.63;2085542;28;20060;-78
2023/01/31 05:41:28;;;;;;;6.45;3.47;;;;;;;8.96;100.00;100842.13;2091377;28;20427;-77
2023/01/31 05:42:55;;;;;;;6.05;3.20;;;;;;;8.96;100.00;100841.22;2088915;28;20448;-77
2023/01/31 05:44:17;;;;;;;6.38;3.47;;;;;;;8.95;100.00;100840.34;2085443;28;20041;-77
2023/01/31 05:45:39;;;;;;;6.30;3.17;;;;;;;8.97;100.00;100843.91;2085317;28;20044;-76
2023/01/31 05:47:00;;;;;;;5.57;2.70;;;;;;;9.02;100.00;100844.00;2084720;28;20404;-77
2023/01/31 05:48:22;;;;;;;5.78;3.63;;;;;;;9.06;100.00;100845.84;2078043;28;20053;-77
2023/01/31 05:49:44;;;;;;;5.38;3.28;;;;;;;9.11;100.00;100836.31;2081413;28;20041;-76
2023/01/31 05:51:06;;;;;;;6.95;4.68;;;;;;;9.15;100.00;100836.41;2085940;28;20049;-78
2023/01/31 05:52:30;;;;;;;7.30;3.83;;;;;;;9.18;100.00;100830.34;2093476;28;20130;-78
2023/01/31 05:53:51;;;;;;;7.47;3.38;;;;;;;9.17;100.00;100831.19;2082840;28;20074;-77
2023/01/31 05:55:14;;;;;;;6.70;3.85;;;;;;;9.19;100.00;100832.97;2093577;28;20048;-78
2023/01/31 05:56:35;;;;;;;5.82;3.17;;;;;;;9.22;100.00;100840.06;2080454;28;20079;-77
2023/01/31 05:57:59;;;;;;;5.82;3.53;;;;;;;9.26;100.00;100836.63;2077444;28;20052;-78
2023/01/31 05:59:21;;;;;;;7.22;3.63;;;;;;;9.30;100.00;100834.97;2085884;28;20110;-77
2023/01/31 06:00:43;;;;;;;6.03;3.97;;;;;;;9.32;100.00;100831.50;2083574;28;20075;-78
2023/01/31 06:02:05;;;;;;;5.25;3.17;;;;;;;9.36;100.00;100836.00;2072025;28;20049;-78
2023/01/31 06:03:28;;;;;;;5.32;3.90;;;;;;;9.40;100.00;100832.56;2078427;28;20077;-77
2023/01/31 06:04:50;;;;;;;8.27;4.88;;;;;;;9.49;100.00;100842.41;2080368;28;20038;-77
2023/01/31 06:06:13;;;;;;;9.85;5.95;;;;;;;9.63;100.00;100845.34;2084840;28;20099;-77
2023/01/31 06:07:36;;;;;;;13.32;8.60;;;;;;;9.75;100.00;100849.13;2086232;28;20059;-78
2023/01/31 06:08:58;;;;;;;18.33;11.23;;;;;;;9.89;100.00;100847.66;2084026;28;20090;-77
2023/01/31 06:10:21;;;;;;;19.70;11.98;;;;;;;10.02;100.00;100856.69;2087726;28;20080;-78
2023/01/31 06:11:43;;;;;;;17.30;11.10;;;;;;;10.15;100.00;100856.06;2094123;28;20070;-78
2023/01/31 06:13:06;;;;;;;22.38;13.63;;;;;;;10.29;100.00;100864.25;2111649;27;20684;-77
2023/01/31 06:14:27;;;;;;;14.60;9.85;;;;;;;10.38;100.00;100869.69;2110052;28;20078;-77
2023/01/31 06:15:50;;;;;;;13.45;9.82;;;;;;;10.40;100.00;100867.97;2108631;28;20174;-78
2023/01/31 06:17:13;;;;;;;13.75;9.20;;;;;;;10.39;100.00;100869.72;2106447;28;20498;-80
2023/01/31 06:18:35;;;;;;;12.32;8.50;;;;;;;10.37;100.00;100862.66;2108581;28;20102;-81
2023/01/31 06:19:58;;;;;;;10.05;7.45;;;;;;;10.33;100.00;100869.59;2101555;28;20102;-82
2023/01/31 06:21:20;;;;;;;14.77;10.32;;;;;;;10.29;100.00;100865.16;2119852;27;20053;-82
2023/01/31 06:22:41;;;;;;;12.52;8.32;;;;;;;10.25;100.00;100873.84;2109464;28;20048;-83
2023/01/31 06:24:05;;;;;;;9.05;6.25;;;;;;;10.19;100.00;100878.13;2109839;28;20039;-84
2023/01/31 06:25:27;;;;;;;13.98;9.77;;;;;;;10.15;100.00;100873.63;2122171;27;20047;-84
2023/01/31 06:26:49;;;;;;;11.52;7.78;;;;;;;10.11;100.00;100864.75;2106640;28;20086;-85
2023/01/31 06:28:13;;;;;;;9.80;6.40;;;;;;;10.07;100.00;100870.84;2118310;28;20043;-84
2023/01/31 06:29:35;;;;;;;10.75;5.82;;;;;;;10.05;100.00;100867.28;2111237;28;20400;-83
2023/01/31 06:30:58;;;;;;;7.45;5.28;;;;;;;10.05;100.00;100869.91;2112657;28;20044;-84
2023/01/31 06:32:20;;;;;;;8.07;5.25;;;;;;;10.06;100.00;100868.16;2107602;28;20295;-84
2023/01/31 06:33:42;;;;;;;8.98;4.80;;;;;;;10.06;100.00;100866.41;2109793;28;20624;-84
2023/01/31 06:35:05;;;;;;;8.80;4.88;;;;;;;10.08;100.00;100869.97;2095577;28;20037;-84
2023/01/31 06:36:28;;;;;;;8.13;4.30;;;;;;;10.08;100.00;100867.34;2115899;28;20044;-83
2023/01/31 06:37:50;;;;;;;10.85;6.30;;;;;;;10.07;100.00;100876.13;2106900;28;20074;-83